sensor_id;sensor_type;location;lat;lon;timestamp;temperature;humidity
38910;DHT22;24676;51.360;12.354;2023-04-06T00:02:44;2.80;99.90
38910;DHT22;24676;51.360;12.354;2023-04-06T00:05:28;2.90;99.90
38910;DHT22;24676;51.360;12.354;2023-04-06T00:08:16;2.90;99.90
38910;DHT22;24676;51.360;12.354;2023-04-06T00:11:00;3.00;99.90
38910;DHT22;24676;51.360;12.354;2023-04-06T00:13:44;3.10;99.90
38910;DHT22;24676;51.360;12.354;2023-04-06T00:16:28;3.10;99.90
38910;DHT22;24676;51.360;12.354;2023-04-06T00:19:13;3.10;99.90
38910;DHT22;24676;51.360;12.354;2023-04-06T00:21:57;3.10;99.90
38910;DHT22;24676;51.360;12.354;2023-04-06T00:24:42;3.10;99.90
38910;DHT22;24676;51.360;12.354;2023-04-06T00:27:26;3.10;99.90
38910;DHT22;24676;51.360;12.354;2023-04-06T00:30:10;3.10;99.90
38910;DHT22;24676;51.360;12.354;2023-04-06T00:32:54;3.10;99.90
38910;DHT22;24676;51.360;12.354;2023-04-06T00:35:39;3.20;99.90
38910;DHT22;24676;51.360;12.354;2023-04-06T00:38:23;3.20;99.90
38910;DHT22;24676;51.360;12.354;2023-04-06T00:41:07;3.30;99.90
38910;DHT22;24676;51.360;12.354;2023-04-06T00:43:51;3.30;99.90
38910;DHT22;24676;51.360;12.354;2023-04-06T00:46:35;3.40;99.90
38910;DHT22;24676;51.360;12.354;2023-04-06T00:49:20;3.40;99.90
38910;DHT22;24676;51.360;12.354;2023-04-06T00:52:04;3.40;99.90
38910;DHT22;24676;51.360;12.354;2023-04-06T00:54:50;3.50;99.90
38910;DHT22;24676;51.360;12.354;2023-04-06T00:57:36;3.50;99.90
38910;DHT22;24676;51.360;12.354;2023-04-06T01:00:21;3.50;99.90
38910;DHT22;24676;51.360;12.354;2023-04-06T01:03:06;3.50;99.90
38910;DHT22;24676;51.360;12.354;2023-04-06T01:05:51;3.50;99.90
38910;DHT22;24676;51.360;12.354;2023-04-06T01:08:40;3.50;99.90
38910;DHT22;24676;51.360;12.354;2023-04-06T01:11:24;3.50;99.90
38910;DHT22;24676;51.360;12.354;2023-04-06T01:14:09;3.50;99.90
38910;DHT22;24676;51.360;12.354;2023-04-06T01:16:53;3.50;99.90
38910;DHT22;24676;51.360;12.354;2023-04-06T01:19:37;3.50;99.90
38910;DHT22;24676;51.360;12.354;2023-04-06T01:22:24;3.50;99.90
38910;DHT22;24676;51.360;12.354;2023-04-06T01:25:08;3.50;99.90
38910;DHT22;24676;51.360;12.354;2023-04-06T01:27:52;3.40;99.90
38910;DHT22;24676;51.360;12.354;2023-04-06T01:30:36;3.40;99.90
38910;DHT22;24676;51.360;12.354;2023-04-06T01:33:21;3.40;99.90
38910;DHT22;24676;51.360;12.354;2023-04-06T01:36:05;3.40;99.90
38910;DHT22;24676;51.360;12.354;2023-04-06T01:38:49;3.40;99.90
38910;DHT22;24676;51.360;12.354;2023-04-06T01:41:34;3.40;99.90
38910;DHT22;24676;51.360;12.354;2023-04-06T01:44:19;3.40;99.90
38910;DHT22;24676;51.360;12.354;2023-04-06T01:47:03;3.30;99.90
38910;DHT22;24676;51.360;12.354;2023-04-06T01:49:47;3.40;99.90
38910;DHT22;24676;51.360;12.354;2023-04-06T01:52:32;3.30;99.90
38910;DHT22;24676;51.360;12.354;2023-04-06T01:55:17;3.30;99.90
38910;DHT22;24676;51.360;12.354;2023-04-06T01:58:01;3.30;99.90
38910;DHT22;24676;51.360;12.354;2023-04-06T02:00:45;3.20;99.90
38910;DHT22;24676;51.360;12.354;2023-04-06T02:03:29;3.20;99.90
38910;DHT22;24676;51.360;12.354;2023-04-06T02:06:14;3.20;99.90
38910;DHT22;24676;51.360;12.354;2023-04-06T02:08:59;3.20;99.90
38910;DHT22;24676;51.360;12.354;2023-04-06T02:11:43;3.20;99.90
38910;DHT22;24676;51.360;12.354;2023-04-06T02:14:28;3.20;99.90
38910;DHT22;24676;51.360;12.354;2023-04-06T02:17:12;3.10;99.90
38910;DHT22;24676;51.360;12.354;2023-04-06T02:19:56;3.10;99.90
38910;DHT22;24676;51.360;12.354;2023-04-06T02:22:40;3.10;99.90
38910;DHT22;24676;51.360;12.354;2023-04-06T02:25:24;3.10;99.90
38910;DHT22;24676;51.360;12.354;2023-04-06T02:28:08;3.00;99.90
38910;DHT22;24676;51.360;12.354;2023-04-06T02:30:53;3.00;99.90
38910;DHT22;24676;51.360;12.354;2023-04-06T02:33:37;3.00;99.90
38910;DHT22;24676;51.360;12.354;2023-04-06T02:36:22;2.90;99.90
38910;DHT22;24676;51.360;12.354;2023-04-06T02:39:06;2.90;99.90
38910;DHT22;24676;51.360;12.354;2023-04-06T02:41:50;2.90;99.90
38910;DHT22;24676;51.360;12.354;2023-04-06T02:44:34;2.90;99.90
38910;DHT22;24676;51.360;12.354;2023-04-06T02:47:19;2.90;99.90
38910;DHT22;24676;51.360;12.354;2023-04-06T02:50:03;2.90;99.90
38910;DHT22;24676;51.360;12.354;2023-04-06T02:52:47;2.80;99.90
38910;DHT22;24676;51.360;12.354;2023-04-06T02:55:31;2.80;99.90
38910;DHT22;24676;51.360;12.354;2023-04-06T02:58:16;2.80;99.90
38910;DHT22;24676;51.360;12.354;2023-04-06T03:01:00;2.80;99.90
38910;DHT22;24676;51.360;12.354;2023-04-06T03:03:45;2.80;99.90
38910;DHT22;24676;51.360;12.354;2023-04-06T03:06:29;2.80;99.90
38910;DHT22;24676;51.360;12.354;2023-04-06T03:09:14;2.70;99.90
38910;DHT22;24676;51.360;12.354;2023-04-06T03:11:59;2.70;99.90
38910;DHT22;24676;51.360;12.354;2023-04-06T03:14:44;2.70;99.90
38910;DHT22;24676;51.360;12.354;2023-04-06T03:17:28;2.70;99.90
38910;DHT22;24676;51.360;12.354;2023-04-06T03:20:12;2.70;99.90
38910;DHT22;24676;51.360;12.354;2023-04-06T03:22:56;2.60;99.90
38910;DHT22;24676;51.360;12.354;2023-04-06T03:25:40;2.60;99.90
38910;DHT22;24676;51.360;12.354;2023-04-06T03:28:25;2.50;99.90
38910;DHT22;24676;51.360;12.354;2023-04-06T03:31:09;2.50;99.90
38910;DHT22;24676;51.360;12.354;2023-04-06T03:33:54;2.40;99.90
38910;DHT22;24676;51.360;12.354;2023-04-06T03:36:38;2.40;99.90
38910;DHT22;24676;51.360;12.354;2023-04-06T03:39:23;2.40;99.90
38910;DHT22;24676;51.360;12.354;2023-04-06T03:42:07;2.40;99.90
38910;DHT22;24676;51.360;12.354;2023-04-06T03:44:52;2.30;99.90
38910;DHT22;24676;51.360;12.354;2023-04-06T03:47:36;2.20;99.90
38910;DHT22;24676;51.360;12.354;2023-04-06T03:50:20;2.20;99.90
38910;DHT22;24676;51.360;12.354;2023-04-06T03:53:05;2.10;99.90
38910;DHT22;24676;51.360;12.354;2023-04-06T03:55:49;2.00;99.90
38910;DHT22;24676;51.360;12.354;2023-04-06T03:58:34;1.80;99.90
38910;DHT22;24676;51.360;12.354;2023-04-06T04:01:18;1.70;99.90
38910;DHT22;24676;51.360;12.354;2023-04-06T04:04:02;1.60;99.90
38910;DHT22;24676;51.360;12.354;2023-04-06T04:06:47;1.50;99.90
38910;DHT22;24676;51.360;12.354;2023-04-06T04:09:31;1.50;99.90
38910;DHT22;24676;51.360;12.354;2023-04-06T04:12:15;1.50;99.90
38910;DHT22;24676;51.360;12.354;2023-04-06T04:15:00;1.50;99.90
38910;DHT22;24676;51.360;12.354;2023-04-06T04:17:45;1.40;99.90
38910;DHT22;24676;51.360;12.354;2023-04-06T04:20:30;1.40;99.90
38910;DHT22;24676;51.360;12.354;2023-04-06T04:23:16;1.40;99.90
38910;DHT22;24676;51.360;12.354;2023-04-06T04:26:00;1.30;99.90
38910;DHT22;24676;51.360;12.354;2023-04-06T04:28:44;1.30;99.90
38910;DHT22;24676;51.360;12.354;2023-04-06T04:31:29;1.30;99.90
38910;DHT22;24676;51.360;12.354;2023-04-06T04:34:13;1.30;99.90
38910;DHT22;24676;51.360;12.354;2023-04-06T04:36:59;1.30;99.90
38910;DHT22;24676;51.360;12.354;2023-04-06T04:39:43;1.30;99.90
38910;DHT22;24676;51.360;12.354;2023-04-06T04:42:27;1.40;99.90
38910;DHT22;24676;51.360;12.354;2023-04-06T04:45:11;1.40;99.90
38910;DHT22;24676;51.360;12.354;2023-04-06T04:47:55;1.40;99.90
38910;DHT22;24676;51.360;12.354;2023-04-06T04:50:40;1.50;99.90
38910;DHT22;24676;51.360;12.354;2023-04-06T04:53:24;1.60;99.90
38910;DHT22;24676;51.360;12.354;2023-04-06T04:56:08;1.70;99.90
38910;DHT22;24676;51.360;12.354;2023-04-06T04:58:53;1.70;99.90
38910;DHT22;24676;51.360;12.354;2023-04-06T05:01:37;1.70;99.90
38910;DHT22;24676;51.360;12.354;2023-04-06T05:04:22;1.80;99.90
38910;DHT22;24676;51.360;12.354;2023-04-06T05:07:07;1.90;99.90
38910;DHT22;24676;51.360;12.354;2023-04-06T05:09:52;2.00;99.90
38910;DHT22;24676;51.360;12.354;2023-04-06T05:12:37;2.00;99.90
38910;DHT22;24676;51.360;12.354;2023-04-06T05:15:21;2.10;99.90
38910;DHT22;24676;51.360;12.354;2023-04-06T05:18:07;2.10;99.90
38910;DHT22;24676;51.360;12.354;2023-04-06T05:20:51;2.20;99.90
38910;DHT22;24676;51.360;12.354;2023-04-06T05:23:36;2.20;99.90
38910;DHT22;24676;51.360;12.354;2023-04-06T05:26:20;2.30;99.90
38910;DHT22;24676;51.360;12.354;2023-04-06T05:29:05;2.40;99.90
38910;DHT22;24676;51.360;12.354;2023-04-06T05:31:50;2.60;99.90
38910;DHT22;24676;51.360;12.354;2023-04-06T05:34:35;2.70;99.90
38910;DHT22;24676;51.360;12.354;2023-04-06T05:37:19;2.90;99.90
38910;DHT22;24676;51.360;12.354;2023-04-06T05:40:04;3.10;99.90
38910;DHT22;24676;51.360;12.354;2023-04-06T05:42:49;3.30;99.90
38910;DHT22;24676;51.360;12.354;2023-04-06T05:45:33;3.40;99.90
38910;DHT22;24676;51.360;12.354;2023-04-06T05:48:19;3.70;99.90
38910;DHT22;24676;51.360;12.354;2023-04-06T05:51:03;4.00;99.90
38910;DHT22;24676;51.360;12.354;2023-04-06T05:53:50;4.30;99.90
38910;DHT22;24676;51.360;12.354;2023-04-06T05:56:34;4.40;99.90
38910;DHT22;24676;51.360;12.354;2023-04-06T05:59:19;4.60;99.90
38910;DHT22;24676;51.360;12.354;2023-04-06T06:02:04;4.80;99.90
38910;DHT22;24676;51.360;12.354;2023-04-06T06:04:48;4.90;99.90
38910;DHT22;24676;51.360;12.354;2023-04-06T06:07:33;5.40;99.90
38910;DHT22;24676;51.360;12.354;2023-04-06T06:10:17;7.30;97.10
38910;DHT22;24676;51.360;12.354;2023-04-06T06:13:01;8.10;86.50
38910;DHT22;24676;51.360;12.354;2023-04-06T06:15:46;8.40;74.70
38910;DHT22;24676;51.360;12.354;2023-04-06T06:18:31;8.90;71.10
38910;DHT22;24676;51.360;12.354;2023-04-06T06:21:15;11.20;61.50
38910;DHT22;24676;51.360;12.354;2023-04-06T06:24:01;12.90;50.80
38910;DHT22;24676;51.360;12.354;2023-04-06T06:26:45;14.20;46.00
38910;DHT22;24676;51.360;12.354;2023-04-06T06:29:29;14.20;43.50
38910;DHT22;24676;51.360;12.354;2023-04-06T06:32:14;13.90;43.50
38910;DHT22;24676;51.360;12.354;2023-04-06T06:34:58;15.20;41.00
38910;DHT22;24676;51.360;12.354;2023-04-06T06:37:43;15.80;39.40
38910;DHT22;24676;51.360;12.354;2023-04-06T06:40:27;17.40;36.60
38910;DHT22;24676;51.360;12.354;2023-04-06T06:43:12;18.70;35.90
38910;DHT22;24676;51.360;12.354;2023-04-06T06:45:56;20.70;31.20
38910;DHT22;24676;51.360;12.354;2023-04-06T06:48:40;22.20;28.90
38910;DHT22;24676;51.360;12.354;2023-04-06T06:51:24;23.80;26.30
38910;DHT22;24676;51.360;12.354;2023-04-06T06:54:09;24.30;25.40
38910;DHT22;24676;51.360;12.354;2023-04-06T06:56:53;23.80;25.10
38910;DHT22;24676;51.360;12.354;2023-04-06T06:59:38;23.90;25.30
38910;DHT22;24676;51.360;12.354;2023-04-06T07:02:23;23.80;24.80
38910;DHT22;24676;51.360;12.354;2023-04-06T07:05:07;23.90;24.40
38910;DHT22;24676;51.360;12.354;2023-04-06T07:07:52;22.20;25.10
38910;DHT22;24676;51.360;12.354;2023-04-06T07:10:36;20.20;27.40
38910;DHT22;24676;51.360;12.354;2023-04-06T07:13:20;19.70;27.90
38910;DHT22;24676;51.360;12.354;2023-04-06T07:16:06;20.20;28.20
38910;DHT22;24676;51.360;12.354;2023-04-06T07:18:51;21.60;27.20
38910;DHT22;24676;51.360;12.354;2023-04-06T07:21:35;22.90;26.50
38910;DHT22;24676;51.360;12.354;2023-04-06T07:24:20;23.10;24.90
38910;DHT22;24676;51.360;12.354;2023-04-06T07:27:05;23.40;24.60
38910;DHT22;24676;51.360;12.354;2023-04-06T07:29:49;23.00;24.20
38910;DHT22;24676;51.360;12.354;2023-04-06T07:32:34;22.90;24.70
38910;DHT22;24676;51.360;12.354;2023-04-06T07:35:19;24.90;23.20
38910;DHT22;24676;51.360;12.354;2023-04-06T07:38:04;25.10;22.90
38910;DHT22;24676;51.360;12.354;2023-04-06T07:40:48;26.60;21.70
38910;DHT22;24676;51.360;12.354;2023-04-06T07:43:33;26.40;21.20
38910;DHT22;24676;51.360;12.354;2023-04-06T07:46:17;25.70;21.70
38910;DHT22;24676;51.360;12.354;2023-04-06T07:49:02;26.10;21.70
38910;DHT22;24676;51.360;12.354;2023-04-06T07:51:46;25.00;21.40
38910;DHT22;24676;51.360;12.354;2023-04-06T07:54:30;24.10;22.50
38910;DHT22;24676;51.360;12.354;2023-04-06T07:57:15;24.80;23.40
38910;DHT22;24676;51.360;12.354;2023-04-06T07:59:59;25.90;21.80
38910;DHT22;24676;51.360;12.354;2023-04-06T08:02:44;25.40;21.60
38910;DHT22;24676;51.360;12.354;2023-04-06T08:05:28;25.80;21.40
38910;DHT22;24676;51.360;12.354;2023-04-06T08:08:13;23.90;23.40
38910;DHT22;24676;51.360;12.354;2023-04-06T08:10:57;22.50;23.90
38910;DHT22;24676;51.360;12.354;2023-04-06T08:13:42;20.50;25.70
38910;DHT22;24676;51.360;12.354;2023-04-06T08:16:26;19.60;27.20
38910;DHT22;24676;51.360;12.354;2023-04-06T08:19:10;19.00;27.70
38910;DHT22;24676;51.360;12.354;2023-04-06T08:21:54;18.30;29.00
38910;DHT22;24676;51.360;12.354;2023-04-06T08:24:39;17.10;30.30
38910;DHT22;24676;51.360;12.354;2023-04-06T08:27:23;17.00;30.40
38910;DHT22;24676;51.360;12.354;2023-04-06T08:30:07;16.90;31.20
38910;DHT22;24676;51.360;12.354;2023-04-06T08:32:52;16.80;32.10
38910;DHT22;24676;51.360;12.354;2023-04-06T08:35:37;16.40;32.50
38910;DHT22;24676;51.360;12.354;2023-04-06T08:38:21;17.10;31.80
38910;DHT22;24676;51.360;12.354;2023-04-06T08:41:09;17.20;32.40
38910;DHT22;24676;51.360;12.354;2023-04-06T08:44:00;17.80;29.40
38910;DHT22;24676;51.360;12.354;2023-04-06T08:46:45;17.90;30.00
38910;DHT22;24676;51.360;12.354;2023-04-06T08:49:29;17.50;29.60
38910;DHT22;24676;51.360;12.354;2023-04-06T08:52:17;17.20;31.30
38910;DHT22;24676;51.360;12.354;2023-04-06T08:55:02;17.10;30.10
38910;DHT22;24676;51.360;12.354;2023-04-06T08:57:47;17.00;30.40
38910;DHT22;24676;51.360;12.354;2023-04-06T09:00:32;16.60;32.50
38910;DHT22;24676;51.360;12.354;2023-04-06T09:03:17;15.70;32.30
38910;DHT22;24676;51.360;12.354;2023-04-06T09:06:01;15.50;33.60
38910;DHT22;24676;51.360;12.354;2023-04-06T09:08:46;15.70;33.30
38910;DHT22;24676;51.360;12.354;2023-04-06T09:11:45;15.60;31.70
38910;DHT22;24676;51.360;12.354;2023-04-06T09:14:37;15.60;32.80
38910;DHT22;24676;51.360;12.354;2023-04-06T09:17:22;15.50;34.30
38910;DHT22;24676;51.360;12.354;2023-04-06T09:20:07;15.20;34.90
38910;DHT22;24676;51.360;12.354;2023-04-06T09:22:52;15.40;36.50
38910;DHT22;24676;51.360;12.354;2023-04-06T09:25:36;16.00;32.40
38910;DHT22;24676;51.360;12.354;2023-04-06T09:28:20;16.30;32.30
38910;DHT22;24676;51.360;12.354;2023-04-06T09:31:05;16.30;33.40
38910;DHT22;24676;51.360;12.354;2023-04-06T09:33:50;16.60;30.30
38910;DHT22;24676;51.360;12.354;2023-04-06T09:36:36;17.10;29.70
38910;DHT22;24676;51.360;12.354;2023-04-06T09:39:24;17.00;29.50
38910;DHT22;24676;51.360;12.354;2023-04-06T09:42:09;16.50;30.50
38910;DHT22;24676;51.360;12.354;2023-04-06T09:44:54;16.00;28.40
38910;DHT22;24676;51.360;12.354;2023-04-06T09:47:42;16.00;29.60
38910;DHT22;24676;51.360;12.354;2023-04-06T09:50:27;16.10;31.90
38910;DHT22;24676;51.360;12.354;2023-04-06T09:53:12;16.20;30.50
38910;DHT22;24676;51.360;12.354;2023-04-06T09:55:58;16.70;28.30
38910;DHT22;24676;51.360;12.354;2023-04-06T09:58:46;17.10;27.90
38910;DHT22;24676;51.360;12.354;2023-04-06T10:01:33;18.00;27.00
38910;DHT22;24676;51.360;12.354;2023-04-06T10:04:40;18.30;28.00
38910;DHT22;24676;51.360;12.354;2023-04-06T10:07:27;19.20;27.40
38910;DHT22;24676;51.360;12.354;2023-04-06T10:10:12;20.00;27.20
38910;DHT22;24676;51.360;12.354;2023-04-06T10:12:59;20.70;25.20
38910;DHT22;24676;51.360;12.354;2023-04-06T10:15:44;21.70;24.30
38910;DHT22;24676;51.360;12.354;2023-04-06T10:18:28;22.80;22.50
38910;DHT22;24676;51.360;12.354;2023-04-06T10:21:13;23.50;21.10
38910;DHT22;24676;51.360;12.354;2023-04-06T10:24:00;24.00;21.20
38910;DHT22;24676;51.360;12.354;2023-04-06T10:27:06;24.30;21.30
38910;DHT22;24676;51.360;12.354;2023-04-06T10:29:50;24.30;21.20
38910;DHT22;24676;51.360;12.354;2023-04-06T10:32:36;23.90;22.30
38910;DHT22;24676;51.360;12.354;2023-04-06T10:35:21;23.60;21.50
38910;DHT22;24676;51.360;12.354;2023-04-06T10:38:05;22.50;21.40
38910;DHT22;24676;51.360;12.354;2023-04-06T10:40:50;21.60;22.30
38910;DHT22;24676;51.360;12.354;2023-04-06T10:43:35;20.30;23.20
38910;DHT22;24676;51.360;12.354;2023-04-06T10:46:25;19.10;23.50
38910;DHT22;24676;51.360;12.354;2023-04-06T10:49:11;18.00;26.20
38910;DHT22;24676;51.360;12.354;2023-04-06T10:51:58;18.90;25.50
38910;DHT22;24676;51.360;12.354;2023-04-06T10:54:43;20.10;25.20
38910;DHT22;24676;51.360;12.354;2023-04-06T10:57:29;20.80;23.70
38910;DHT22;24676;51.360;12.354;2023-04-06T11:00:15;21.40;23.40
38910;DHT22;24676;51.360;12.354;2023-04-06T11:02:59;20.60;24.20
38910;DHT22;24676;51.360;12.354;2023-04-06T11:05:48;21.00;25.20
38910;DHT22;24676;51.360;12.354;2023-04-06T11:08:33;21.60;24.90
38910;DHT22;24676;51.360;12.354;2023-04-06T11:11:20;22.90;22.90
38910;DHT22;24676;51.360;12.354;2023-04-06T11:14:04;23.10;21.90
38910;DHT22;24676;51.360;12.354;2023-04-06T11:16:50;22.90;23.30
38910;DHT22;24676;51.360;12.354;2023-04-06T11:19:34;24.00;21.70
38910;DHT22;24676;51.360;12.354;2023-04-06T11:22:19;24.10;21.90
38910;DHT22;24676;51.360;12.354;2023-04-06T11:25:07;24.70;21.60
38910;DHT22;24676;51.360;12.354;2023-04-06T11:27:51;24.20;21.40
38910;DHT22;24676;51.360;12.354;2023-04-06T11:30:35;22.80;23.50
38910;DHT22;24676;51.360;12.354;2023-04-06T11:33:20;23.40;22.20
38910;DHT22;24676;51.360;12.354;2023-04-06T11:36:06;22.90;22.20
38910;DHT22;24676;51.360;12.354;2023-04-06T11:38:51;23.50;21.90
38910;DHT22;24676;51.360;12.354;2023-04-06T11:41:35;24.40;21.40
38910;DHT22;24676;51.360;12.354;2023-04-06T11:44:38;24.80;20.30
38910;DHT22;24676;51.360;12.354;2023-04-06T11:47:34;24.90;21.10
38910;DHT22;24676;51.360;12.354;2023-04-06T11:50:19;24.70;20.50
38910;DHT22;24676;51.360;12.354;2023-04-06T11:53:03;25.20;20.20
38910;DHT22;24676;51.360;12.354;2023-04-06T11:55:47;25.70;20.40
38910;DHT22;24676;51.360;12.354;2023-04-06T11:58:32;24.70;21.40
38910;DHT22;24676;51.360;12.354;2023-04-06T12:01:16;24.30;23.20
38910;DHT22;24676;51.360;12.354;2023-04-06T12:04:00;23.00;22.70
38910;DHT22;24676;51.360;12.354;2023-04-06T12:06:46;22.00;24.00
38910;DHT22;24676;51.360;12.354;2023-04-06T12:09:30;21.30;24.20
38910;DHT22;24676;51.360;12.354;2023-04-06T12:12:15;20.60;23.90
38910;DHT22;24676;51.360;12.354;2023-04-06T12:15:00;19.90;24.10
38910;DHT22;24676;51.360;12.354;2023-04-06T12:17:44;19.30;25.10
38910;DHT22;24676;51.360;12.354;2023-04-06T12:20:28;18.70;27.20
38910;DHT22;24676;51.360;12.354;2023-04-06T12:23:14;18.70;25.50
38910;DHT22;24676;51.360;12.354;2023-04-06T12:25:58;18.80;26.30
38910;DHT22;24676;51.360;12.354;2023-04-06T12:28:42;18.70;28.10
38910;DHT22;24676;51.360;12.354;2023-04-06T12:31:28;19.10;25.50
38910;DHT22;24676;51.360;12.354;2023-04-06T12:34:13;18.50;25.00
38910;DHT22;24676;51.360;12.354;2023-04-06T12:36:57;18.40;24.90
38910;DHT22;24676;51.360;12.354;2023-04-06T12:39:42;18.60;25.40
38910;DHT22;24676;51.360;12.354;2023-04-06T12:42:28;18.30;25.30
38910;DHT22;24676;51.360;12.354;2023-04-06T12:45:12;17.30;26.20
38910;DHT22;24676;51.360;12.354;2023-04-06T12:47:56;16.90;26.60
38910;DHT22;24676;51.360;12.354;2023-04-06T12:50:41;16.70;27.90
38910;DHT22;24676;51.360;12.354;2023-04-06T12:53:25;16.40;27.70
38910;DHT22;24676;51.360;12.354;2023-04-06T12:56:14;16.10;27.60
38910;DHT22;24676;51.360;12.354;2023-04-06T12:58:59;15.60;28.80
38910;DHT22;24676;51.360;12.354;2023-04-06T13:01:44;15.30;30.80
38910;DHT22;24676;51.360;12.354;2023-04-06T13:04:28;14.90;29.40
38910;DHT22;24676;51.360;12.354;2023-04-06T13:07:13;14.70;30.50
38910;DHT22;24676;51.360;12.354;2023-04-06T13:09:57;14.40;30.00
38910;DHT22;24676;51.360;12.354;2023-04-06T13:12:41;13.90;29.90
38910;DHT22;24676;51.360;12.354;2023-04-06T13:15:26;13.70;31.10
38910;DHT22;24676;51.360;12.354;2023-04-06T13:18:10;13.50;31.90
38910;DHT22;24676;51.360;12.354;2023-04-06T13:20:55;13.60;31.10
38910;DHT22;24676;51.360;12.354;2023-04-06T13:23:40;13.70;32.00
38910;DHT22;24676;51.360;12.354;2023-04-06T13:26:24;13.70;31.40
38910;DHT22;24676;51.360;12.354;2023-04-06T13:29:09;13.80;31.40
38910;DHT22;24676;51.360;12.354;2023-04-06T13:31:53;13.80;31.00
38910;DHT22;24676;51.360;12.354;2023-04-06T13:34:38;13.80;31.20
38910;DHT22;24676;51.360;12.354;2023-04-06T13:37:22;13.80;32.20
38910;DHT22;24676;51.360;12.354;2023-04-06T13:40:07;13.80;31.20
38910;DHT22;24676;51.360;12.354;2023-04-06T13:42:52;13.80;31.00
38910;DHT22;24676;51.360;12.354;2023-04-06T13:45:37;13.80;31.70
38910;DHT22;24676;51.360;12.354;2023-04-06T13:48:21;13.80;30.90
38910;DHT22;24676;51.360;12.354;2023-04-06T13:51:13;13.60;31.10
38910;DHT22;24676;51.360;12.354;2023-04-06T13:53:59;13.50;31.30
38910;DHT22;24676;51.360;12.354;2023-04-06T13:56:43;13.30;31.30
38910;DHT22;24676;51.360;12.354;2023-04-06T13:59:37;13.20;32.20
38910;DHT22;24676;51.360;12.354;2023-04-06T14:02:21;13.10;32.60
38910;DHT22;24676;51.360;12.354;2023-04-06T14:05:11;12.80;32.50
38910;DHT22;24676;51.360;12.354;2023-04-06T14:07:55;12.70;32.60
38910;DHT22;24676;51.360;12.354;2023-04-06T14:10:40;12.80;32.70
38910;DHT22;24676;51.360;12.354;2023-04-06T14:13:25;12.90;32.70
38910;DHT22;24676;51.360;12.354;2023-04-06T14:16:10;12.90;33.00
38910;DHT22;24676;51.360;12.354;2023-04-06T14:18:54;12.80;32.60
38910;DHT22;24676;51.360;12.354;2023-04-06T14:21:41;12.80;33.00
38910;DHT22;24676;51.360;12.354;2023-04-06T14:24:27;12.80;33.40
38910;DHT22;24676;51.360;12.354;2023-04-06T14:27:11;12.90;34.50
38910;DHT22;24676;51.360;12.354;2023-04-06T14:29:56;13.00;33.00
38910;DHT22;24676;51.360;12.354;2023-04-06T14:32:41;13.10;32.80
38910;DHT22;24676;51.360;12.354;2023-04-06T14:35:26;13.10;33.10
38910;DHT22;24676;51.360;12.354;2023-04-06T14:38:11;13.10;33.20
38910;DHT22;24676;51.360;12.354;2023-04-06T14:40:56;13.00;33.40
38910;DHT22;24676;51.360;12.354;2023-04-06T14:43:40;12.90;33.30
38910;DHT22;24676;51.360;12.354;2023-04-06T14:46:25;12.80;33.50
38910;DHT22;24676;51.360;12.354;2023-04-06T14:49:10;12.70;33.30
38910;DHT22;24676;51.360;12.354;2023-04-06T14:51:55;12.50;33.90
38910;DHT22;24676;51.360;12.354;2023-04-06T14:54:39;12.50;34.10
38910;DHT22;24676;51.360;12.354;2023-04-06T14:57:24;12.60;33.50
38910;DHT22;24676;51.360;12.354;2023-04-06T15:00:09;12.60;33.50
38910;DHT22;24676;51.360;12.354;2023-04-06T15:02:53;12.60;33.60
38910;DHT22;24676;51.360;12.354;2023-04-06T15:05:38;12.50;33.40
38910;DHT22;24676;51.360;12.354;2023-04-06T15:08:23;12.40;33.80
38910;DHT22;24676;51.360;12.354;2023-04-06T15:11:07;12.40;34.00
38910;DHT22;24676;51.360;12.354;2023-04-06T15:13:51;12.40;34.00
38910;DHT22;24676;51.360;12.354;2023-04-06T15:16:36;12.30;33.90
38910;DHT22;24676;51.360;12.354;2023-04-06T15:19:21;12.30;33.90
38910;DHT22;24676;51.360;12.354;2023-04-06T15:22:05;12.30;33.80
38910;DHT22;24676;51.360;12.354;2023-04-06T15:24:50;12.30;34.00
38910;DHT22;24676;51.360;12.354;2023-04-06T15:27:34;12.30;34.20
38910;DHT22;24676;51.360;12.354;2023-04-06T15:30:19;12.30;34.00
38910;DHT22;24676;51.360;12.354;2023-04-06T15:33:04;12.30;34.40
38910;DHT22;24676;51.360;12.354;2023-04-06T15:35:50;12.40;34.40
38910;DHT22;24676;51.360;12.354;2023-04-06T15:38:34;12.40;35.20
38910;DHT22;24676;51.360;12.354;2023-04-06T15:41:19;12.50;35.00
38910;DHT22;24676;51.360;12.354;2023-04-06T15:44:04;12.40;34.60
38910;DHT22;24676;51.360;12.354;2023-04-06T15:46:48;12.40;34.10
38910;DHT22;24676;51.360;12.354;2023-04-06T15:49:32;12.40;34.10
38910;DHT22;24676;51.360;12.354;2023-04-06T15:52:17;12.30;34.00
38910;DHT22;24676;51.360;12.354;2023-04-06T15:55:03;12.10;34.30
38910;DHT22;24676;51.360;12.354;2023-04-06T15:57:48;12.10;34.70
38910;DHT22;24676;51.360;12.354;2023-04-06T16:00:32;12.00;34.90
38910;DHT22;24676;51.360;12.354;2023-04-06T16:03:16;12.00;34.80
38910;DHT22;24676;51.360;12.354;2023-04-06T16:05:59;11.90;35.20
38910;DHT22;24676;51.360;12.354;2023-04-06T16:08:44;11.90;35.30
38910;DHT22;24676;51.360;12.354;2023-04-06T16:11:28;11.80;34.90
38910;DHT22;24676;51.360;12.354;2023-04-06T16:14:12;11.80;35.30
38910;DHT22;24676;51.360;12.354;2023-04-06T16:16:57;11.70;35.60
38910;DHT22;24676;51.360;12.354;2023-04-06T16:19:41;11.70;35.50
38910;DHT22;24676;51.360;12.354;2023-04-06T16:22:26;11.70;36.10
38910;DHT22;24676;51.360;12.354;2023-04-06T16:25:11;11.80;35.70
38910;DHT22;24676;51.360;12.354;2023-04-06T16:27:55;11.80;36.30
38910;DHT22;24676;51.360;12.354;2023-04-06T16:30:39;11.70;36.60
38910;DHT22;24676;51.360;12.354;2023-04-06T16:33:23;11.70;36.80
38910;DHT22;24676;51.360;12.354;2023-04-06T16:36:08;11.60;36.80
38910;DHT22;24676;51.360;12.354;2023-04-06T16:38:53;11.60;37.00
38910;DHT22;24676;51.360;12.354;2023-04-06T16:41:37;11.60;37.90
38910;DHT22;24676;51.360;12.354;2023-04-06T16:44:22;11.50;37.00
38910;DHT22;24676;51.360;12.354;2023-04-06T16:47:06;11.50;37.40
38910;DHT22;24676;51.360;12.354;2023-04-06T16:49:53;11.40;38.20
38910;DHT22;24676;51.360;12.354;2023-04-06T16:52:37;11.30;37.90
38910;DHT22;24676;51.360;12.354;2023-04-06T16:55:21;11.30;38.10
38910;DHT22;24676;51.360;12.354;2023-04-06T16:58:06;11.20;38.10
38910;DHT22;24676;51.360;12.354;2023-04-06T17:00:50;11.20;38.20
38910;DHT22;24676;51.360;12.354;2023-04-06T17:03:34;11.10;38.30
38910;DHT22;24676;51.360;12.354;2023-04-06T17:06:19;11.00;38.60
38910;DHT22;24676;51.360;12.354;2023-04-06T17:09:03;10.90;38.90
38910;DHT22;24676;51.360;12.354;2023-04-06T17:11:47;10.80;40.90
38910;DHT22;24676;51.360;12.354;2023-04-06T17:14:31;10.70;41.80